Exeter, New Hampshire
Current Conditions -  °F | °C
As of 11:28 PM on Wednesday 26 Nov 2014 (Local Time) from KPSM Reporting Station
Ice Pellets Ice Pellets  
Wind Chill: 20°   Ceiling: 700
Heat Index: 32°   Visibility: 1.2mi
Dew Point: 30°   Wind: 20mph
Humidity: 93%   Direction: 350°N
Pressure: 29.7"   Gusts: 25mph
Location:  42.98°N, 70.95°W
Report Text: KPSM 270428Z 35017G22KT 1 1/4SM -PL BR SCT003 BKN007 OVC016 00/M01 A2970 RMK AO2A
Loading
Personal Weather Stations






























Interactive Weather Map New forecast layout! Learn more

10-Day Weather Forecast

Advertisements
Track Severe Weather on mobile